Aguanish, Canada
Current Conditions -  °F | °C
As of 1:00 AM on Wednesday 26 Nov 2014 (Local Time) from CYNA Reporting Station
Overcast Overcast  
Wind Chill: 29°   Ceiling: 6000
Heat Index: 39°   Visibility: 9mi
Dew Point: 34°   Wind: 23mph
Humidity: 81%   Direction: 270°W
Pressure: 29.58"   Gusts: 30mph
Location:  50.22°N, 62.08°W
Report Text: CYNA 260500Z AUTO 27020G26KT 9SM OVC060 04/01 A2958 RMK SLP019
Loading
Personal Weather Stations






























Interactive Weather Map New forecast layout! Learn more

10-Day Weather Forecast

Advertisements
Track Severe Weather on mobile